sensor_id;sensor_type;location;lat;lon;timestamp;P1;durP1;ratioP1;P2;durP2;ratioP2
68655;SDS011;55638;51.122;13.606;2022-08-03T00:01:17;2.15;;;1.40;;
68655;SDS011;55638;51.122;13.606;2022-08-03T00:02:49;1.30;;;1.20;;
68655;SDS011;55638;51.122;13.606;2022-08-03T00:04:21;3.00;;;1.40;;
68655;SDS011;55638;51.122;13.606;2022-08-03T00:06:04;1.85;;;1.25;;
68655;SDS011;55638;51.122;13.606;2022-08-03T00:07:36;1.70;;;1.23;;
68655;SDS011;55638;51.122;13.606;2022-08-03T00:09:09;1.60;;;1.20;;
68655;SDS011;55638;51.122;13.606;2022-08-03T00:10:41;1.50;;;1.40;;
68655;SDS011;55638;51.122;13.606;2022-08-03T00:12:12;1.45;;;1.35;;
68655;SDS011;55638;51.122;13.606;2022-08-03T00:13:45;2.58;;;1.52;;
68655;SDS011;55638;51.122;13.606;2022-08-03T00:15:16;1.30;;;1.20;;
68655;SDS011;55638;51.122;13.606;2022-08-03T00:16:48;2.33;;;1.13;;
68655;SDS011;55638;51.122;13.606;2022-08-03T00:18:21;1.90;;;1.17;;
68655;SDS011;55638;51.122;13.606;2022-08-03T00:19:53;1.30;;;1.20;;
68655;SDS011;55638;51.122;13.606;2022-08-03T00:21:25;1.40;;;1.30;;
68655;SDS011;55638;51.122;13.606;2022-08-03T00:22:56;2.03;;;1.27;;
68655;SDS011;55638;51.122;13.606;2022-08-03T00:24:28;1.40;;;1.30;;
68655;SDS011;55638;51.122;13.606;2022-08-03T00:26:01;1.50;;;1.20;;
68655;SDS011;55638;51.122;13.606;2022-08-03T00:27:33;1.73;;;1.30;;
68655;SDS011;55638;51.122;13.606;2022-08-03T00:29:05;2.22;;;1.40;;
68655;SDS011;55638;51.122;13.606;2022-08-03T00:30:37;2.08;;;1.20;;
68655;SDS011;55638;51.122;13.606;2022-08-03T00:32:12;1.80;;;1.38;;
68655;SDS011;55638;51.122;13.606;2022-08-03T00:33:44;1.50;;;1.20;;
68655;SDS011;55638;51.122;13.606;2022-08-03T00:35:33;2.45;;;1.40;;
68655;SDS011;55638;51.122;13.606;2022-08-03T00:37:20;1.67;;;1.20;;
68655;SDS011;55638;51.122;13.606;2022-08-03T00:39:11;2.05;;;1.30;;
68655;SDS011;55638;51.122;13.606;2022-08-03T00:40:43;4.30;;;1.48;;
68655;SDS011;55638;51.122;13.606;2022-08-03T00:42:14;2.47;;;1.30;;
68655;SDS011;55638;51.122;13.606;2022-08-03T00:43:47;1.60;;;1.50;;
68655;SDS011;55638;51.122;13.606;2022-08-03T00:45:20;1.52;;;1.38;;
68655;SDS011;55638;51.122;13.606;2022-08-03T00:46:53;1.38;;;1.27;;
68655;SDS011;55638;51.122;13.606;2022-08-03T00:48:25;3.22;;;1.50;;
68655;SDS011;55638;51.122;13.606;2022-08-03T00:50:04;1.67;;;1.52;;
68655;SDS011;55638;51.122;13.606;2022-08-03T00:51:36;1.73;;;1.42;;
68655;SDS011;55638;51.122;13.606;2022-08-03T00:53:09;2.38;;;1.40;;
68655;SDS011;55638;51.122;13.606;2022-08-03T00:54:43;2.70;;;1.50;;
68655;SDS011;55638;51.122;13.606;2022-08-03T00:56:15;1.63;;;1.20;;
68655;SDS011;55638;51.122;13.606;2022-08-03T00:57:47;1.83;;;1.50;;
68655;SDS011;55638;51.122;13.606;2022-08-03T00:59:20;1.52;;;1.42;;
68655;SDS011;55638;51.122;13.606;2022-08-03T01:00:51;2.20;;;1.60;;
68655;SDS011;55638;51.122;13.606;2022-08-03T01:02:23;1.92;;;1.40;;
68655;SDS011;55638;51.122;13.606;2022-08-03T01:03:55;3.55;;;1.70;;
68655;SDS011;55638;51.122;13.606;2022-08-03T01:05:27;4.90;;;1.80;;
68655;SDS011;55638;51.122;13.606;2022-08-03T01:07:05;2.72;;;1.63;;
68655;SDS011;55638;51.122;13.606;2022-08-03T01:08:51;1.85;;;1.33;;
68655;SDS011;55638;51.122;13.606;2022-08-03T01:12:11;2.33;;;1.70;;
68655;SDS011;55638;51.122;13.606;2022-08-03T01:14:12;2.20;;;1.90;;
68655;SDS011;55638;51.122;13.606;2022-08-03T01:16:11;1.60;;;1.50;;
68655;SDS011;55638;51.122;13.606;2022-08-03T01:17:56;2.25;;;1.50;;
68655;SDS011;55638;51.122;13.606;2022-08-03T01:19:41;1.95;;;1.60;;
68655;SDS011;55638;51.122;13.606;2022-08-03T01:21:19;1.83;;;1.60;;
68655;SDS011;55638;51.122;13.606;2022-08-03T01:23:17;3.35;;;1.70;;
68655;SDS011;55638;51.122;13.606;2022-08-03T01:26:54;1.92;;;1.70;;
68655;SDS011;55638;51.122;13.606;2022-08-03T01:28:32;2.22;;;1.63;;
68655;SDS011;55638;51.122;13.606;2022-08-03T01:30:18;1.85;;;1.42;;
68655;SDS011;55638;51.122;13.606;2022-08-03T01:31:52;1.42;;;1.33;;
68655;SDS011;55638;51.122;13.606;2022-08-03T01:33:59;2.45;;;1.73;;
68655;SDS011;55638;51.122;13.606;2022-08-03T01:35:43;1.60;;;1.50;;
68655;SDS011;55638;51.122;13.606;2022-08-03T01:37:20;2.08;;;1.88;;
68655;SDS011;55638;51.122;13.606;2022-08-03T01:38:58;1.80;;;1.70;;
68655;SDS011;55638;51.122;13.606;2022-08-03T01:40:33;2.20;;;2.00;;
68655;SDS011;55638;51.122;13.606;2022-08-03T01:42:07;2.10;;;1.60;;
68655;SDS011;55638;51.122;13.606;2022-08-03T01:43:42;2.15;;;1.67;;
68655;SDS011;55638;51.122;13.606;2022-08-03T01:45:38;2.38;;;1.58;;
68655;SDS011;55638;51.122;13.606;2022-08-03T01:47:11;1.75;;;1.50;;
68655;SDS011;55638;51.122;13.606;2022-08-03T01:48:43;1.77;;;1.67;;
68655;SDS011;55638;51.122;13.606;2022-08-03T01:50:18;3.25;;;2.00;;
68655;SDS011;55638;51.122;13.606;2022-08-03T01:51:52;2.47;;;1.70;;
68655;SDS011;55638;51.122;13.606;2022-08-03T01:53:35;1.75;;;1.63;;
68655;SDS011;55638;51.122;13.606;2022-08-03T01:55:10;1.77;;;1.67;;
68655;SDS011;55638;51.122;13.606;2022-08-03T01:56:43;2.30;;;1.90;;
68655;SDS011;55638;51.122;13.606;2022-08-03T01:58:16;1.73;;;1.63;;
68655;SDS011;55638;51.122;13.606;2022-08-03T01:59:51;1.98;;;1.77;;
68655;SDS011;55638;51.122;13.606;2022-08-03T02:01:25;1.80;;;1.58;;
68655;SDS011;55638;51.122;13.606;2022-08-03T02:03:17;2.53;;;1.67;;
68655;SDS011;55638;51.122;13.606;2022-08-03T02:04:51;2.83;;;1.70;;
68655;SDS011;55638;51.122;13.606;2022-08-03T02:06:28;2.40;;;1.75;;
68655;SDS011;55638;51.122;13.606;2022-08-03T02:08:23;1.98;;;1.55;;
68655;SDS011;55638;51.122;13.606;2022-08-03T02:09:56;2.40;;;1.90;;
68655;SDS011;55638;51.122;13.606;2022-08-03T02:11:30;2.47;;;2.00;;
68655;SDS011;55638;51.122;13.606;2022-08-03T02:13:04;2.63;;;2.10;;
68655;SDS011;55638;51.122;13.606;2022-08-03T02:14:39;1.92;;;1.67;;
68655;SDS011;55638;51.122;13.606;2022-08-03T02:16:12;2.58;;;1.85;;
68655;SDS011;55638;51.122;13.606;2022-08-03T02:17:45;2.17;;;1.98;;
68655;SDS011;55638;51.122;13.606;2022-08-03T02:19:17;2.00;;;1.80;;
68655;SDS011;55638;51.122;13.606;2022-08-03T02:20:49;2.15;;;1.80;;
68655;SDS011;55638;51.122;13.606;2022-08-03T02:22:22;1.77;;;1.67;;
68655;SDS011;55638;51.122;13.606;2022-08-03T02:23:55;1.83;;;1.52;;
68655;SDS011;55638;51.122;13.606;2022-08-03T02:25:27;2.05;;;1.85;;
68655;SDS011;55638;51.122;13.606;2022-08-03T02:27:00;3.10;;;1.67;;
68655;SDS011;55638;51.122;13.606;2022-08-03T02:28:37;2.10;;;1.67;;
68655;SDS011;55638;51.122;13.606;2022-08-03T02:30:11;1.92;;;1.63;;
68655;SDS011;55638;51.122;13.606;2022-08-03T02:31:44;1.92;;;1.70;;
68655;SDS011;55638;51.122;13.606;2022-08-03T02:33:20;1.85;;;1.73;;
68655;SDS011;55638;51.122;13.606;2022-08-03T02:34:57;2.00;;;1.52;;
68655;SDS011;55638;51.122;13.606;2022-08-03T02:36:31;1.65;;;1.55;;
68655;SDS011;55638;51.122;13.606;2022-08-03T02:38:07;2.05;;;1.90;;
68655;SDS011;55638;51.122;13.606;2022-08-03T02:39:41;1.92;;;1.70;;
68655;SDS011;55638;51.122;13.606;2022-08-03T02:41:15;2.00;;;1.80;;
68655;SDS011;55638;51.122;13.606;2022-08-03T02:42:52;2.25;;;1.70;;
68655;SDS011;55638;51.122;13.606;2022-08-03T02:44:29;2.33;;;1.73;;
68655;SDS011;55638;51.122;13.606;2022-08-03T02:46:02;2.75;;;2.13;;
68655;SDS011;55638;51.122;13.606;2022-08-03T02:47:35;3.17;;;1.67;;
68655;SDS011;55638;51.122;13.606;2022-08-03T02:49:25;3.20;;;2.17;;
68655;SDS011;55638;51.122;13.606;2022-08-03T02:51:18;2.85;;;1.65;;
68655;SDS011;55638;51.122;13.606;2022-08-03T02:52:51;2.40;;;1.92;;
68655;SDS011;55638;51.122;13.606;2022-08-03T02:54:25;2.35;;;1.77;;
68655;SDS011;55638;51.122;13.606;2022-08-03T02:56:00;2.70;;;1.90;;
68655;SDS011;55638;51.122;13.606;2022-08-03T02:57:34;1.83;;;1.73;;
68655;SDS011;55638;51.122;13.606;2022-08-03T02:59:06;2.28;;;2.08;;
68655;SDS011;55638;51.122;13.606;2022-08-03T03:00:39;4.30;;;1.90;;
68655;SDS011;55638;51.122;13.606;2022-08-03T03:02:14;2.10;;;1.90;;
68655;SDS011;55638;51.122;13.606;2022-08-03T03:03:48;2.00;;;1.80;;
68655;SDS011;55638;51.122;13.606;2022-08-03T03:05:23;2.45;;;2.05;;
68655;SDS011;55638;51.122;13.606;2022-08-03T03:07:15;2.30;;;2.10;;
68655;SDS011;55638;51.122;13.606;2022-08-03T03:08:50;2.28;;;2.08;;
68655;SDS011;55638;51.122;13.606;2022-08-03T03:10:29;2.10;;;1.85;;
68655;SDS011;55638;51.122;13.606;2022-08-03T03:12:01;4.60;;;2.55;;
68655;SDS011;55638;51.122;13.606;2022-08-03T03:13:34;2.53;;;2.20;;
68655;SDS011;55638;51.122;13.606;2022-08-03T03:15:07;2.20;;;2.00;;
68655;SDS011;55638;51.122;13.606;2022-08-03T03:16:39;3.85;;;2.17;;
68655;SDS011;55638;51.122;13.606;2022-08-03T03:18:12;2.28;;;2.08;;
68655;SDS011;55638;51.122;13.606;2022-08-03T03:19:52;2.15;;;1.80;;
68655;SDS011;55638;51.122;13.606;2022-08-03T03:21:25;2.10;;;1.90;;
68655;SDS011;55638;51.122;13.606;2022-08-03T03:22:58;2.42;;;1.80;;
68655;SDS011;55638;51.122;13.606;2022-08-03T03:24:31;2.05;;;1.85;;
68655;SDS011;55638;51.122;13.606;2022-08-03T03:26:05;2.67;;;2.17;;
68655;SDS011;55638;51.122;13.606;2022-08-03T03:27:38;3.38;;;2.38;;
68655;SDS011;55638;51.122;13.606;2022-08-03T03:29:10;2.40;;;2.20;;
68655;SDS011;55638;51.122;13.606;2022-08-03T03:30:42;2.30;;;2.10;;
68655;SDS011;55638;51.122;13.606;2022-08-03T03:32:14;2.58;;;2.38;;
68655;SDS011;55638;51.122;13.606;2022-08-03T03:33:46;2.45;;;2.10;;
68655;SDS011;55638;51.122;13.606;2022-08-03T03:35:18;2.78;;;2.22;;
68655;SDS011;55638;51.122;13.606;2022-08-03T03:36:50;3.50;;;2.45;;
68655;SDS011;55638;51.122;13.606;2022-08-03T03:38:22;2.50;;;2.30;;
68655;SDS011;55638;51.122;13.606;2022-08-03T03:39:53;2.95;;;2.10;;
68655;SDS011;55638;51.122;13.606;2022-08-03T03:41:25;2.72;;;2.40;;
68655;SDS011;55638;51.122;13.606;2022-08-03T03:43:07;2.50;;;2.30;;
68655;SDS011;55638;51.122;13.606;2022-08-03T03:44:40;2.40;;;2.20;;
68655;SDS011;55638;51.122;13.606;2022-08-03T03:46:12;2.50;;;2.30;;
68655;SDS011;55638;51.122;13.606;2022-08-03T03:47:43;2.63;;;2.35;;
68655;SDS011;55638;51.122;13.606;2022-08-03T03:49:15;2.45;;;2.22;;
68655;SDS011;55638;51.122;13.606;2022-08-03T03:50:47;2.50;;;2.30;;
68655;SDS011;55638;51.122;13.606;2022-08-03T03:52:20;3.08;;;2.20;;
68655;SDS011;55638;51.122;13.606;2022-08-03T03:53:55;4.13;;;2.10;;
68655;SDS011;55638;51.122;13.606;2022-08-03T03:55:28;2.38;;;2.10;;
68655;SDS011;55638;51.122;13.606;2022-08-03T03:57:00;2.60;;;2.40;;
68655;SDS011;55638;51.122;13.606;2022-08-03T03:58:32;2.78;;;2.17;;
68655;SDS011;55638;51.122;13.606;2022-08-03T04:00:04;2.72;;;2.35;;
68655;SDS011;55638;51.122;13.606;2022-08-03T04:01:37;2.60;;;2.40;;
68655;SDS011;55638;51.122;13.606;2022-08-03T04:03:10;2.88;;;2.20;;
68655;SDS011;55638;51.122;13.606;2022-08-03T04:04:42;2.60;;;2.00;;
68655;SDS011;55638;51.122;13.606;2022-08-03T04:06:32;3.10;;;2.30;;
68655;SDS011;55638;51.122;13.606;2022-08-03T04:08:22;2.17;;;1.98;;
68655;SDS011;55638;51.122;13.606;2022-08-03T04:10:17;2.50;;;2.25;;
68655;SDS011;55638;51.122;13.606;2022-08-03T04:12:11;2.75;;;2.10;;
68655;SDS011;55638;51.122;13.606;2022-08-03T04:14:04;2.30;;;2.10;;
68655;SDS011;55638;51.122;13.606;2022-08-03T04:15:39;2.40;;;2.05;;
68655;SDS011;55638;51.122;13.606;2022-08-03T04:17:11;2.33;;;2.10;;
68655;SDS011;55638;51.122;13.606;2022-08-03T04:18:47;2.10;;;1.90;;
68655;SDS011;55638;51.122;13.606;2022-08-03T04:20:22;2.35;;;2.10;;
68655;SDS011;55638;51.122;13.606;2022-08-03T04:21:59;2.55;;;2.30;;
68655;SDS011;55638;51.122;13.606;2022-08-03T04:23:33;3.63;;;2.30;;
68655;SDS011;55638;51.122;13.606;2022-08-03T04:25:08;3.38;;;2.10;;
68655;SDS011;55638;51.122;13.606;2022-08-03T04:26:44;2.45;;;2.25;;
68655;SDS011;55638;51.122;13.606;2022-08-03T04:28:23;3.80;;;2.90;;
68655;SDS011;55638;51.122;13.606;2022-08-03T04:30:03;3.30;;;2.38;;
68655;SDS011;55638;51.122;13.606;2022-08-03T04:31:37;2.75;;;2.42;;
68655;SDS011;55638;51.122;13.606;2022-08-03T04:33:10;2.85;;;2.55;;
68655;SDS011;55638;51.122;13.606;2022-08-03T04:34:43;5.95;;;2.50;;
68655;SDS011;55638;51.122;13.606;2022-08-03T04:36:16;3.53;;;2.22;;
68655;SDS011;55638;51.122;13.606;2022-08-03T04:37:50;2.67;;;2.47;;
68655;SDS011;55638;51.122;13.606;2022-08-03T04:39:25;2.88;;;2.00;;
68655;SDS011;55638;51.122;13.606;2022-08-03T04:40:59;3.35;;;2.35;;
68655;SDS011;55638;51.122;13.606;2022-08-03T04:42:32;4.18;;;2.20;;
68655;SDS011;55638;51.122;13.606;2022-08-03T04:44:04;6.65;;;2.80;;
68655;SDS011;55638;51.122;13.606;2022-08-03T04:45:38;4.43;;;2.60;;
68655;SDS011;55638;51.122;13.606;2022-08-03T04:47:11;7.82;;;2.55;;
68655;SDS011;55638;51.122;13.606;2022-08-03T04:48:43;4.57;;;2.40;;
68655;SDS011;55638;51.122;13.606;2022-08-03T04:50:16;3.45;;;2.40;;
68655;SDS011;55638;51.122;13.606;2022-08-03T04:52:07;2.40;;;2.20;;
68655;SDS011;55638;51.122;13.606;2022-08-03T04:53:41;2.60;;;2.40;;
68655;SDS011;55638;51.122;13.606;2022-08-03T04:56:58;3.15;;;2.50;;
68655;SDS011;55638;51.122;13.606;2022-08-03T04:58:30;3.25;;;2.47;;
68655;SDS011;55638;51.122;13.606;2022-08-03T05:00:02;3.28;;;2.60;;
68655;SDS011;55638;51.122;13.606;2022-08-03T05:01:36;3.45;;;2.50;;
68655;SDS011;55638;51.122;13.606;2022-08-03T05:03:08;3.30;;;2.17;;
68655;SDS011;55638;51.122;13.606;2022-08-03T05:04:54;2.60;;;2.40;;
68655;SDS011;55638;51.122;13.606;2022-08-03T05:06:26;3.75;;;2.50;;
68655;SDS011;55638;51.122;13.606;2022-08-03T05:07:58;3.63;;;2.63;;
68655;SDS011;55638;51.122;13.606;2022-08-03T05:09:33;2.88;;;2.47;;
68655;SDS011;55638;51.122;13.606;2022-08-03T05:11:23;3.08;;;2.78;;
68655;SDS011;55638;51.122;13.606;2022-08-03T05:12:55;3.42;;;3.10;;
68655;SDS011;55638;51.122;13.606;2022-08-03T05:14:26;3.30;;;3.00;;
68655;SDS011;55638;51.122;13.606;2022-08-03T05:15:58;5.82;;;2.92;;
68655;SDS011;55638;51.122;13.606;2022-08-03T05:17:30;2.85;;;2.65;;
68655;SDS011;55638;51.122;13.606;2022-08-03T05:19:04;3.05;;;2.75;;
68655;SDS011;55638;51.122;13.606;2022-08-03T05:20:37;3.42;;;2.67;;
68655;SDS011;55638;51.122;13.606;2022-08-03T05:22:09;2.80;;;2.60;;
68655;SDS011;55638;51.122;13.606;2022-08-03T05:23:41;3.00;;;2.72;;
68655;SDS011;55638;51.122;13.606;2022-08-03T05:25:13;2.92;;;2.63;;
68655;SDS011;55638;51.122;13.606;2022-08-03T05:26:50;3.65;;;2.47;;
68655;SDS011;55638;51.122;13.606;2022-08-03T05:28:22;2.80;;;2.60;;
68655;SDS011;55638;51.122;13.606;2022-08-03T05:29:54;2.85;;;2.63;;
68655;SDS011;55638;51.122;13.606;2022-08-03T05:31:25;3.20;;;2.35;;
68655;SDS011;55638;51.122;13.606;2022-08-03T05:32:57;2.83;;;2.63;;
68655;SDS011;55638;51.122;13.606;2022-08-03T05:34:30;3.78;;;2.95;;
68655;SDS011;55638;51.122;13.606;2022-08-03T05:36:02;3.88;;;2.67;;
68655;SDS011;55638;51.122;13.606;2022-08-03T05:37:35;3.88;;;2.80;;
68655;SDS011;55638;51.122;13.606;2022-08-03T05:39:07;2.80;;;2.60;;
68655;SDS011;55638;51.122;13.606;2022-08-03T05:40:38;3.00;;;2.67;;
68655;SDS011;55638;51.122;13.606;2022-08-03T05:42:27;2.63;;;2.42;;
68655;SDS011;55638;51.122;13.606;2022-08-03T05:43:59;2.90;;;2.60;;
68655;SDS011;55638;51.122;13.606;2022-08-03T05:45:30;3.75;;;2.58;;
68655;SDS011;55638;51.122;13.606;2022-08-03T05:47:02;2.33;;;2.13;;
68655;SDS011;55638;51.122;13.606;2022-08-03T05:48:33;3.58;;;2.55;;
68655;SDS011;55638;51.122;13.606;2022-08-03T05:50:05;2.70;;;2.50;;
68655;SDS011;55638;51.122;13.606;2022-08-03T05:51:37;2.70;;;2.50;;
68655;SDS011;55638;51.122;13.606;2022-08-03T05:53:09;3.60;;;2.70;;
68655;SDS011;55638;51.122;13.606;2022-08-03T05:54:40;2.33;;;2.10;;
68655;SDS011;55638;51.122;13.606;2022-08-03T05:56:27;2.72;;;2.25;;
68655;SDS011;55638;51.122;13.606;2022-08-03T05:57:59;2.30;;;2.10;;
68655;SDS011;55638;51.122;13.606;2022-08-03T05:59:33;3.10;;;2.30;;
68655;SDS011;55638;51.122;13.606;2022-08-03T06:01:08;2.38;;;2.17;;
68655;SDS011;55638;51.122;13.606;2022-08-03T06:02:40;2.10;;;1.90;;
68655;SDS011;55638;51.122;13.606;2022-08-03T06:04:13;2.40;;;2.20;;
68655;SDS011;55638;51.122;13.606;2022-08-03T06:05:44;2.15;;;2.00;;
68655;SDS011;55638;51.122;13.606;2022-08-03T06:07:31;4.40;;;2.25;;
68655;SDS011;55638;51.122;13.606;2022-08-03T06:09:02;2.10;;;1.90;;
68655;SDS011;55638;51.122;13.606;2022-08-03T06:10:34;2.50;;;1.83;;
68655;SDS011;55638;51.122;13.606;2022-08-03T06:12:08;4.05;;;1.90;;
68655;SDS011;55638;51.122;13.606;2022-08-03T06:13:44;1.88;;;1.77;;
68655;SDS011;55638;51.122;13.606;2022-08-03T06:15:16;2.70;;;1.85;;
68655;SDS011;55638;51.122;13.606;2022-08-03T06:16:49;2.83;;;1.50;;
68655;SDS011;55638;51.122;13.606;2022-08-03T06:18:20;1.80;;;1.70;;
68655;SDS011;55638;51.122;13.606;2022-08-03T06:19:52;2.15;;;1.90;;
68655;SDS011;55638;51.122;13.606;2022-08-03T06:21:24;2.75;;;2.00;;
68655;SDS011;55638;51.122;13.606;2022-08-03T06:22:57;1.85;;;1.58;;
68655;SDS011;55638;51.122;13.606;2022-08-03T06:24:31;2.65;;;1.60;;
68655;SDS011;55638;51.122;13.606;2022-08-03T06:26:04;1.55;;;1.45;;
68655;SDS011;55638;51.122;13.606;2022-08-03T06:27:36;2.85;;;1.80;;
68655;SDS011;55638;51.122;13.606;2022-08-03T06:29:10;1.60;;;1.50;;
68655;SDS011;55638;51.122;13.606;2022-08-03T06:30:42;2.00;;;1.73;;
68655;SDS011;55638;51.122;13.606;2022-08-03T06:32:15;1.85;;;1.50;;
68655;SDS011;55638;51.122;13.606;2022-08-03T06:33:47;1.50;;;1.40;;
68655;SDS011;55638;51.122;13.606;2022-08-03T06:35:39;1.45;;;1.30;;
68655;SDS011;55638;51.122;13.606;2022-08-03T06:37:15;3.22;;;1.60;;
68655;SDS011;55638;51.122;13.606;2022-08-03T06:38:46;1.90;;;1.60;;
68655;SDS011;55638;51.122;13.606;2022-08-03T06:40:22;1.60;;;1.20;;
68655;SDS011;55638;51.122;13.606;2022-08-03T06:41:59;1.90;;;1.30;;
68655;SDS011;55638;51.122;13.606;2022-08-03T06:43:31;1.63;;;1.33;;
68655;SDS011;55638;51.122;13.606;2022-08-03T06:45:06;1.35;;;1.23;;
68655;SDS011;55638;51.122;13.606;2022-08-03T06:46:39;3.58;;;1.45;;
68655;SDS011;55638;51.122;13.606;2022-08-03T06:48:11;4.53;;;1.67;;
68655;SDS011;55638;51.122;13.606;2022-08-03T06:49:43;2.55;;;1.60;;
68655;SDS011;55638;51.122;13.606;2022-08-03T06:51:35;2.83;;;1.45;;
68655;SDS011;55638;51.122;13.606;2022-08-03T06:53:26;2.58;;;1.52;;
68655;SDS011;55638;51.122;13.606;2022-08-03T06:54:58;2.47;;;1.77;;
68655;SDS011;55638;51.122;13.606;2022-08-03T06:56:30;10.60;;;2.38;;
68655;SDS011;55638;51.122;13.606;2022-08-03T06:58:01;4.95;;;1.80;;
68655;SDS011;55638;51.122;13.606;2022-08-03T06:59:34;2.90;;;1.92;;
68655;SDS011;55638;51.122;13.606;2022-08-03T07:01:25;2.60;;;1.60;;
68655;SDS011;55638;51.122;13.606;2022-08-03T07:02:57;2.83;;;1.52;;
68655;SDS011;55638;51.122;13.606;2022-08-03T07:04:29;4.97;;;1.73;;
68655;SDS011;55638;51.122;13.606;2022-08-03T07:06:00;1.65;;;1.40;;
68655;SDS011;55638;51.122;13.606;2022-08-03T07:07:33;1.67;;;1.48;;
68655;SDS011;55638;51.122;13.606;2022-08-03T07:09:05;2.42;;;1.90;;
68655;SDS011;55638;51.122;13.606;2022-08-03T07:10:37;3.03;;;1.83;;
68655;SDS011;55638;51.122;13.606;2022-08-03T07:12:09;1.48;;;1.27;;
68655;SDS011;55638;51.122;13.606;2022-08-03T07:13:43;1.52;;;1.33;;
68655;SDS011;55638;51.122;13.606;2022-08-03T07:15:15;1.55;;;1.27;;
68655;SDS011;55638;51.122;13.606;2022-08-03T07:17:08;1.95;;;1.33;;
68655;SDS011;55638;51.122;13.606;2022-08-03T07:18:42;2.30;;;1.60;;
68655;SDS011;55638;51.122;13.606;2022-08-03T07:20:14;2.15;;;1.50;;
68655;SDS011;55638;51.122;13.606;2022-08-03T07:21:47;2.20;;;1.58;;
68655;SDS011;55638;51.122;13.606;2022-08-03T07:23:19;2.70;;;1.60;;
68655;SDS011;55638;51.122;13.606;2022-08-03T07:24:51;1.77;;;1.58;;
68655;SDS011;55638;51.122;13.606;2022-08-03T07:26:22;1.40;;;1.30;;
68655;SDS011;55638;51.122;13.606;2022-08-03T07:27:54;1.52;;;1.42;;
68655;SDS011;55638;51.122;13.606;2022-08-03T07:29:26;2.85;;;1.20;;
68655;SDS011;55638;51.122;13.606;2022-08-03T07:30:58;2.17;;;1.25;;
68655;SDS011;55638;51.122;13.606;2022-08-03T07:32:30;1.98;;;1.45;;
68655;SDS011;55638;51.122;13.606;2022-08-03T07:34:02;1.30;;;1.20;;
68655;SDS011;55638;51.122;13.606;2022-08-03T07:35:33;1.60;;;1.33;;
68655;SDS011;55638;51.122;13.606;2022-08-03T07:37:05;1.98;;;1.50;;
68655;SDS011;55638;51.122;13.606;2022-08-03T07:38:37;1.30;;;1.20;;
68655;SDS011;55638;51.122;13.606;2022-08-03T07:40:08;2.08;;;1.38;;
68655;SDS011;55638;51.122;13.606;2022-08-03T07:41:40;2.50;;;1.30;;
68655;SDS011;55638;51.122;13.606;2022-08-03T07:43:12;1.80;;;1.00;;
68655;SDS011;55638;51.122;13.606;2022-08-03T07:44:43;1.80;;;1.52;;
68655;SDS011;55638;51.122;13.606;2022-08-03T07:46:15;2.20;;;1.25;;
68655;SDS011;55638;51.122;13.606;2022-08-03T07:47:47;1.85;;;1.20;;
68655;SDS011;55638;51.122;13.606;2022-08-03T07:49:24;1.30;;;1.20;;
68655;SDS011;55638;51.122;13.606;2022-08-03T07:50:55;1.50;;;1.20;;
68655;SDS011;55638;51.122;13.606;2022-08-03T07:52:27;1.25;;;1.15;;
68655;SDS011;55638;51.122;13.606;2022-08-03T07:54:17;1.90;;;1.25;;
68655;SDS011;55638;51.122;13.606;2022-08-03T07:55:50;1.20;;;1.10;;
68655;SDS011;55638;51.122;13.606;2022-08-03T07:57:21;1.35;;;1.08;;
68655;SDS011;55638;51.122;13.606;2022-08-03T07:58:53;2.13;;;1.13;;
68655;SDS011;55638;51.122;13.606;2022-08-03T08:00:25;3.97;;;1.20;;
68655;SDS011;55638;51.122;13.606;2022-08-03T08:01:57;3.15;;;1.40;;
68655;SDS011;55638;51.122;13.606;2022-08-03T08:03:29;1.42;;;1.00;;
68655;SDS011;55638;51.122;13.606;2022-08-03T08:05:21;1.65;;;1.17;;
68655;SDS011;55638;51.122;13.606;2022-08-03T08:06:52;1.73;;;1.25;;
68655;SDS011;55638;51.122;13.606;2022-08-03T08:08:24;1.95;;;1.10;;
68655;SDS011;55638;51.122;13.606;2022-08-03T08:09:56;1.02;;;0.93;;
68655;SDS011;55638;51.122;13.606;2022-08-03T08:11:27;1.40;;;1.15;;
68655;SDS011;55638;51.122;13.606;2022-08-03T08:12:59;2.33;;;1.00;;
68655;SDS011;55638;51.122;13.606;2022-08-03T08:14:32;1.40;;;1.02;;
68655;SDS011;55638;51.122;13.606;2022-08-03T08:16:04;1.20;;;1.10;;
68655;SDS011;55638;51.122;13.606;2022-08-03T08:19:22;1.00;;;0.93;;
68655;SDS011;55638;51.122;13.606;2022-08-03T08:20:55;1.85;;;1.30;;
68655;SDS011;55638;51.122;13.606;2022-08-03T08:22:27;1.58;;;1.40;;
68655;SDS011;55638;51.122;13.606;2022-08-03T08:24:01;1.20;;;1.10;;
68655;SDS011;55638;51.122;13.606;2022-08-03T08:25:33;2.72;;;1.20;;
68655;SDS011;55638;51.122;13.606;2022-08-03T08:27:05;1.75;;;1.10;;
68655;SDS011;55638;51.122;13.606;2022-08-03T08:28:39;1.63;;;1.17;;
68655;SDS011;55638;51.122;13.606;2022-08-03T08:30:11;1.40;;;1.30;;
68655;SDS011;55638;51.122;13.606;2022-08-03T08:31:49;1.30;;;1.20;;
68655;SDS011;55638;51.122;13.606;2022-08-03T08:33:21;1.55;;;1.10;;
68655;SDS011;55638;51.122;13.606;2022-08-03T08:34:54;2.40;;;1.08;;
68655;SDS011;55638;51.122;13.606;2022-08-03T08:36:27;1.30;;;1.10;;
68655;SDS011;55638;51.122;13.606;2022-08-03T08:37:59;1.48;;;1.20;;
68655;SDS011;55638;51.122;13.606;2022-08-03T08:39:36;1.25;;;1.13;;
68655;SDS011;55638;51.122;13.606;2022-08-03T08:41:08;2.47;;;1.00;;
68655;SDS011;55638;51.122;13.606;2022-08-03T08:42:42;0.90;;;0.90;;
68655;SDS011;55638;51.122;13.606;2022-08-03T08:44:28;1.20;;;1.10;;
68655;SDS011;55638;51.122;13.606;2022-08-03T08:46:00;2.28;;;1.00;;
68655;SDS011;55638;51.122;13.606;2022-08-03T08:47:33;1.13;;;1.00;;
68655;SDS011;55638;51.122;13.606;2022-08-03T08:49:22;1.55;;;1.10;;
68655;SDS011;55638;51.122;13.606;2022-08-03T08:50:58;1.98;;;1.00;;
68655;SDS011;55638;51.122;13.606;2022-08-03T08:52:31;2.00;;;1.40;;
68655;SDS011;55638;51.122;13.606;2022-08-03T08:54:04;1.90;;;1.05;;
68655;SDS011;55638;51.122;13.606;2022-08-03T08:55:37;1.30;;;1.20;;
68655;SDS011;55638;51.122;13.606;2022-08-03T08:57:33;1.13;;;1.05;;
68655;SDS011;55638;51.122;13.606;2022-08-03T08:59:13;0.95;;;0.95;;
68655;SDS011;55638;51.122;13.606;2022-08-03T09:00:45;1.27;;;0.80;;
68655;SDS011;55638;51.122;13.606;2022-08-03T09:02:18;1.20;;;1.10;;
68655;SDS011;55638;51.122;13.606;2022-08-03T09:03:50;1.83;;;1.10;;
68655;SDS011;55638;51.122;13.606;2022-08-03T09:05:24;1.42;;;1.10;;
68655;SDS011;55638;51.122;13.606;2022-08-03T09:07:16;0.93;;;0.80;;
68655;SDS011;55638;51.122;13.606;2022-08-03T09:08:59;1.20;;;1.00;;
68655;SDS011;55638;51.122;13.606;2022-08-03T09:10:31;1.48;;;1.10;;
68655;SDS011;55638;51.122;13.606;2022-08-03T09:12:02;1.10;;;1.00;;
68655;SDS011;55638;51.122;13.606;2022-08-03T09:13:54;2.80;;;1.00;;
68655;SDS011;55638;51.122;13.606;2022-08-03T09:15:27;3.03;;;1.48;;
68655;SDS011;55638;51.122;13.606;2022-08-03T09:17:02;0.88;;;0.88;;
68655;SDS011;55638;51.122;13.606;2022-08-03T09:18:34;0.98;;;0.90;;
68655;SDS011;55638;51.122;13.606;2022-08-03T09:20:06;1.13;;;1.08;;
68655;SDS011;55638;51.122;13.606;2022-08-03T09:21:39;2.38;;;0.93;;
68655;SDS011;55638;51.122;13.606;2022-08-03T09:23:11;1.65;;;1.05;;
68655;SDS011;55638;51.122;13.606;2022-08-03T09:25:03;1.00;;;0.90;;
68655;SDS011;55638;51.122;13.606;2022-08-03T09:26:54;1.10;;;0.90;;
68655;SDS011;55638;51.122;13.606;2022-08-03T09:28:26;1.17;;;0.75;;
68655;SDS011;55638;51.122;13.606;2022-08-03T09:30:25;1.77;;;1.02;;
68655;SDS011;55638;51.122;13.606;2022-08-03T09:32:04;2.63;;;1.17;;
68655;SDS011;55638;51.122;13.606;2022-08-03T09:33:45;1.20;;;1.10;;